Time;durP1;ratioP1;P1;durP2;ratioP2;P2;SDS_P1;SDS_P2;PMS_P1;PMS_P2;Temp;Humidity;BMP_temperature;BMP_pressure;BME280_temperature;BME280_humidity;BME280_pressure;Samples;Min_cycle;Max_cycle;Signal;HPM_P1;HPM_P2
2023/07/13 00:01:06;;;;;;;0.00;0.00;;;;;;;;;;5052525;28;20028;-88
2023/07/13 00:03:34;;;;;;;0.00;0.00;;;16.60;99.90;;;;;;5049204;28;20025;-89
2023/07/13 00:06:00;;;;;;;0.00;0.00;;;16.60;99.90;;;;;;5045268;28;20025;-89
2023/07/13 00:08:26;;;;;;;0.00;0.00;;;16.40;99.90;;;;;;5049197;28;20033;-88
2023/07/13 00:10:55;;;;;;;0.00;0.00;;;;;;;;;;5049627;28;20119;-88
2023/07/13 00:13:21;;;;;;;0.00;0.00;;;;;;;;;;5045964;28;20033;-89
2023/07/13 00:15:47;;;;;;;0.00;0.00;;;16.40;99.90;;;;;;5048028;28;20029;-89
2023/07/13 00:18:13;;;;;;;0.00;0.00;;;16.40;99.90;;;;;;5051023;28;20067;-89
2023/07/13 00:20:41;;;;;;;0.00;0.00;;;;;;;;;;5051586;28;20024;-88
2023/07/13 00:23:07;;;;;;;0.00;0.00;;;16.40;99.90;;;;;;5044430;28;20045;-86
2023/07/13 00:25:32;;;;;;;0.00;0.00;;;;;;;;;;5049029;28;20134;-88
2023/07/13 00:27:59;;;;;;;0.00;0.00;;;;;;;;;;5047292;28;20029;-88
2023/07/13 00:30:25;;;;;;;0.00;0.00;;;16.20;99.90;;;;;;5050797;28;20080;-88
2023/07/13 00:32:51;;;;;;;0.00;0.00;;;16.20;99.90;;;;;;5039763;28;20450;-88
2023/07/13 00:35:16;;;;;;;0.00;0.00;;;16.20;99.90;;;;;;5048344;28;20021;-88
2023/07/13 00:37:42;;;;;;;0.00;0.00;;;16.20;99.90;;;;;;5047968;28;20162;-88
2023/07/13 00:40:10;;;;;;;0.00;0.00;;;16.20;99.90;;;;;;5063705;28;20495;-89
2023/07/13 00:42:36;;;;;;;0.00;0.00;;;16.20;99.90;;;;;;5063129;28;20033;-88
2023/07/13 00:45:28;;;;;;;0.00;0.00;;;16.10;99.90;;;;;;5051752;28;20048;-88
2023/07/13 00:47:55;;;;;;;0.00;0.00;;;16.10;99.90;;;;;;5048363;28;20518;-86
2023/07/13 00:50:21;;;;;;;0.00;0.00;;;16.10;99.90;;;;;;5044464;28;20032;-87
2023/07/13 00:52:53;;;;;;;0.00;0.00;;;16.10;99.90;;;;;;5043859;28;20131;-86
2023/07/13 00:55:20;;;;;;;0.00;0.00;;;16.00;99.90;;;;;;5048231;28;20012;-88
2023/07/13 00:57:46;;;;;;;0.00;0.00;;;16.10;99.90;;;;;;5048107;28;20449;-87
2023/07/13 01:00:13;;;;;;;0.00;0.00;;;16.00;99.90;;;;;;5044865;28;20028;-87
2023/07/13 01:02:44;;;;;;;0.00;0.00;;;16.00;99.90;;;;;;5047297;28;20067;-87
2023/07/13 01:05:15;;;;;;;0.00;0.00;;;16.00;99.90;;;;;;5048612;28;20021;-88
2023/07/13 01:07:43;;;;;;;0.00;0.00;;;16.00;99.90;;;;;;5045697;28;20061;-87
2023/07/13 01:10:10;;;;;;;0.00;0.00;;;16.00;99.90;;;;;;5045281;28;20025;-88
2023/07/13 01:12:35;;;;;;;0.00;0.00;;;;;;;;;;5041030;28;20174;-88
2023/07/13 01:15:02;;;;;;;0.00;0.00;;;16.00;99.90;;;;;;5056477;28;20109;-88
2023/07/13 01:17:29;;;;;;;0.00;0.00;;;15.90;99.90;;;;;;5046218;28;20059;-88
2023/07/13 01:19:55;;;;;;;0.00;0.00;;;15.90;99.90;;;;;;5051899;28;20061;-87
2023/07/13 01:22:26;;;;;;;0.00;0.00;;;15.90;99.90;;;;;;5049799;28;20525;-88
2023/07/13 01:24:53;;;;;;;0.00;0.00;;;15.90;99.90;;;;;;5046792;28;20079;-87
2023/07/13 01:27:25;;;;;;;0.00;0.00;;;15.90;99.90;;;;;;5049568;28;20506;-87
2023/07/13 01:29:52;;;;;;;0.00;0.00;;;16.00;99.90;;;;;;5056401;28;20021;-87
2023/07/13 01:32:23;;;;;;;0.00;0.00;;;16.00;99.90;;;;;;5043040;28;20467;-86
2023/07/13 01:34:50;;;;;;;0.00;0.00;;;16.00;99.90;;;;;;5055834;28;20480;-89
2023/07/13 01:37:16;;;;;;;0.00;0.00;;;15.90;99.90;;;;;;5053630;28;20501;-88
2023/07/13 01:39:42;;;;;;;0.00;0.00;;;;;;;;;;5049156;28;20032;-87
2023/07/13 01:42:08;;;;;;;0.00;0.00;;;;;;;;;;5047769;28;20112;-88
2023/07/13 01:44:34;;;;;;;0.00;0.00;;;;;;;;;;5050203;28;20025;-87
2023/07/13 01:47:01;;;;;;;0.00;0.00;;;16.00;99.90;;;;;;5048658;28;20400;-88
2023/07/13 01:49:27;;;;;;;0.00;0.00;;;16.00;99.90;;;;;;5053082;28;20021;-87
2023/07/13 01:51:53;;;;;;;0.00;0.00;;;;;;;;;;5049497;28;20553;-87
2023/07/13 01:54:19;;;;;;;0.00;0.00;;;16.10;99.90;;;;;;5047798;28;20501;-89
2023/07/13 01:56:44;;;;;;;0.00;0.00;;;;;;;;;;5050789;28;20120;-88
2023/07/13 01:59:10;;;;;;;0.00;0.00;;;16.20;99.90;;;;;;5048304;28;20071;-88
2023/07/13 02:01:36;;;;;;;0.00;0.00;;;;;;;;;;5049602;28;20454;-87
2023/07/13 02:04:02;;;;;;;0.00;0.00;;;16.20;99.90;;;;;;5055035;28;20036;-87
2023/07/13 02:06:28;;;;;;;0.00;0.00;;;16.20;99.90;;;;;;5050881;28;20507;-87
2023/07/13 02:08:54;;;;;;;0.00;0.00;;;;;;;;;;5056080;28;20060;-88
2023/07/13 02:11:20;;;;;;;0.00;0.00;;;;;;;;;;5053347;28;20016;-88
2023/07/13 02:13:46;;;;;;;0.00;0.00;;;;;;;;;;5052176;28;20066;-88
2023/07/13 02:16:11;;;;;;;0.00;0.00;;;;;;;;;;5057440;28;20057;-86
2023/07/13 02:18:37;;;;;;;0.00;0.00;;;;;;;;;;5046324;28;20102;-88
2023/07/13 02:21:03;;;;;;;0.00;0.00;;;16.50;99.90;;;;;;5056644;28;20027;-89
2023/07/13 02:23:29;;;;;;;0.00;0.00;;;;;;;;;;5052937;28;20021;-87
2023/07/13 02:26:02;;;;;;;0.00;0.00;;;16.50;99.90;;;;;;5049490;28;20487;-85
2023/07/13 04:06:45;;;;;;;0.00;0.00;;;15.50;99.90;;;;;;5043418;28;20505;-88
2023/07/13 04:09:11;;;;;;;0.00;0.00;;;;;;;;;;5040884;28;20029;-88
2023/07/13 04:11:36;;;;;;;0.00;0.00;;;15.50;99.90;;;;;;5045326;28;20017;-88
2023/07/13 04:14:02;;;;;;;0.00;0.00;;;15.50;99.90;;;;;;5047042;28;20371;-89
2023/07/13 04:16:28;;;;;;;0.00;0.00;;;;;;;;;;5044523;28;20155;-89
2023/07/13 04:18:59;;;;;;;0.00;0.00;;;15.40;99.90;;;;;;5048043;28;20021;-89
2023/07/13 04:21:25;;;;;;;0.00;0.00;;;15.40;99.90;;;;;;5047905;28;20087;-89
2023/07/13 04:23:50;;;;;;;0.00;0.00;;;15.40;99.90;;;;;;5042968;28;20030;-89
2023/07/13 04:26:16;;;;;;;0.00;0.00;;;;;;;;;;5045466;28;20716;-89
2023/07/13 04:28:42;;;;;;;0.00;0.00;;;15.40;99.90;;;;;;5042345;28;20040;-87
2023/07/13 04:31:07;;;;;;;0.00;0.00;;;15.50;99.90;;;;;;5039786;28;20033;-89
2023/07/13 04:33:33;;;;;;;0.00;0.00;;;15.50;99.90;;;;;;5046181;28;20037;-89
2023/07/13 04:36:01;;;;;;;0.00;0.00;;;15.70;99.90;;;;;;5045869;28;20028;-88
2023/07/13 04:38:30;;;;;;;0.00;0.00;;;15.80;99.90;;;;;;5046607;28;20025;-89
2023/07/13 04:40:58;;;;;;;0.00;0.00;;;15.90;99.90;;;;;;5042939;28;20021;-89
2023/07/13 04:43:25;;;;;;;0.10;0.10;;;16.00;99.90;;;;;;5032963;28;20045;-89
2023/07/13 04:45:51;;;;;;;0.00;0.00;;;;;;;;;;5041941;28;20044;-89
2023/07/13 04:48:17;;;;;;;0.00;0.00;;;16.30;99.90;;;;;;5043802;28;20036;-89
2023/07/13 04:50:43;;;;;;;0.00;0.00;;;;;;;;;;5043616;28;20461;-89
2023/07/13 04:53:10;;;;;;;0.00;0.00;;;16.50;99.90;;;;;;5060645;28;20553;-89
2023/07/13 04:55:36;;;;;;;0.00;0.00;;;16.40;99.90;;;;;;5041303;28;20033;-88
2023/07/13 04:58:02;;;;;;;0.00;0.00;;;;;;;;;;5044712;28;20066;-89
2023/07/13 05:00:29;;;;;;;0.00;0.00;;;16.40;99.90;;;;;;5047366;28;20029;-88
2023/07/13 05:02:58;;;;;;;0.00;0.00;;;16.40;99.90;;;;;;5030504;28;20108;-88
2023/07/13 05:05:25;;;;;;;;;;;16.30;99.90;;;;;;5049553;28;20398;-88
2023/07/13 05:07:52;;;;;;;0.00;0.00;;;16.20;99.90;;;;;;5052362;28;19917;-89
2023/07/13 05:10:17;;;;;;;0.00;0.00;;;16.20;99.90;;;;;;5048052;28;20108;-87
2023/07/13 05:12:43;;;;;;;0.00;0.00;;;;;;;;;;5044788;28;20163;-87
2023/07/13 05:15:09;;;;;;;0.00;0.00;;;16.20;99.90;;;;;;5041973;28;20036;-89
2023/07/13 05:17:35;;;;;;;0.00;0.00;;;;;;;;;;5044756;28;20385;-89
2023/07/13 05:20:01;;;;;;;0.00;0.00;;;16.20;99.90;;;;;;5039407;28;20034;-87
2023/07/13 05:22:27;;;;;;;0.00;0.00;;;;;;;;;;5050774;28;20036;-89
2023/07/13 05:24:53;;;;;;;0.00;0.00;;;;;;;;;;5047696;28;20080;-88
2023/07/13 05:27:18;;;;;;;0.00;0.00;;;16.10;99.90;;;;;;5041112;28;20114;-85
2023/07/13 05:29:44;;;;;;;0.00;0.00;;;;;;;;;;5049492;28;20501;-89
2023/07/13 05:32:10;;;;;;;0.00;0.00;;;16.30;99.90;;;;;;5044478;28;20029;-86
2023/07/13 05:34:35;;;;;;;0.00;0.00;;;16.30;99.90;;;;;;5041989;28;20383;-86
2023/07/13 05:37:01;;;;;;;0.00;0.00;;;;;;;;;;5050370;28;20029;-88
2023/07/13 05:39:27;;;;;;;0.00;0.00;;;16.50;99.90;;;;;;5049460;28;20013;-87
2023/07/13 05:41:53;;;;;;;0.00;0.00;;;;;;;;;;5051106;28;20021;-88
2023/07/13 05:44:19;;;;;;;0.00;0.00;;;;;;;;;;5046749;28;20026;-86
2023/07/13 05:46:45;;;;;;;0.00;0.00;;;;;;;;;;5049926;28;20457;-88
2023/07/13 05:49:10;;;;;;;0.00;0.00;;;16.40;99.90;;;;;;5049542;28;20399;-89
2023/07/13 05:51:37;;;;;;;0.00;0.00;;;;;;;;;;5044722;28;20040;-86
2023/07/13 05:54:02;;;;;;;0.00;0.00;;;16.50;99.90;;;;;;5043150;28;20024;-87
2023/07/13 05:56:28;;;;;;;0.00;0.00;;;;;;;;;;5053504;28;20017;-89
2023/07/13 05:58:54;;;;;;;0.00;0.00;;;;;;;;;;5062882;28;20033;-87
2023/07/13 06:01:22;;;;;;;0.00;0.00;;;;;;;;;;5045416;28;20111;-87
2023/07/13 06:03:47;;;;;;;0.00;0.00;;;16.60;99.90;;;;;;5047075;28;20025;-85
2023/07/13 06:06:14;;;;;;;0.00;0.00;;;;;;;;;;5045277;28;20039;-85
2023/07/13 06:08:39;;;;;;;0.00;0.00;;;16.70;99.90;;;;;;5050816;28;20033;-87
2023/07/13 06:11:09;;;;;;;0.00;0.00;;;16.70;99.90;;;;;;5050625;28;20032;-88
2023/07/13 06:13:35;;;;;;;0.00;0.00;;;;;;;;;;5050326;28;20025;-87
2023/07/13 06:16:04;;;;;;;0.00;0.00;;;16.80;99.90;;;;;;5047115;28;20025;-87
2023/07/13 06:18:30;;;;;;;0.00;0.00;;;16.80;99.90;;;;;;5046774;28;20048;-87
2023/07/13 06:20:56;;;;;;;0.00;0.00;;;16.70;99.90;;;;;;5062856;28;20031;-86
2023/07/13 06:23:23;;;;;;;0.00;0.00;;;;;;;;;;5064747;28;20025;-87
2023/07/13 06:25:48;;;;;;;0.00;0.00;;;16.90;99.90;;;;;;5049403;28;20031;-85
2023/07/13 06:28:13;;;;;;;0.00;0.00;;;16.90;99.90;;;;;;5052675;28;20147;-88
2023/07/13 06:30:39;;;;;;;0.00;0.00;;;;;;;;;;5051114;28;20311;-87
2023/07/13 06:33:05;;;;;;;0.00;0.00;;;17.10;99.90;;;;;;5053188;28;20109;-86
2023/07/13 06:35:31;;;;;;;0.00;0.00;;;;;;;;;;5044328;28;20438;-86
2023/07/13 06:37:57;;;;;;;0.00;0.00;;;17.20;99.90;;;;;;5043353;28;20029;-85
2023/07/13 06:40:22;;;;;;;0.00;0.00;;;17.20;99.90;;;;;;5045555;28;20028;-86
2023/07/13 06:42:48;;;;;;;0.00;0.00;;;;;;;;;;5052264;28;20025;-87
2023/07/13 06:45:14;;;;;;;0.00;0.00;;;;;;;;;;5052593;28;20025;-86
2023/07/13 06:47:39;;;;;;;0.00;0.00;;;17.40;99.90;;;;;;5055366;28;20021;-86
2023/07/13 06:50:05;;;;;;;0.00;0.00;;;17.50;99.90;;;;;;5051658;28;20048;-86
2023/07/13 06:52:31;;;;;;;0.00;0.00;;;17.50;99.90;;;;;;5044243;28;20026;-86
2023/07/13 06:54:56;;;;;;;0.00;0.00;;;17.60;99.90;;;;;;5045037;28;20017;-84
2023/07/13 06:57:22;;;;;;;0.00;0.00;;;17.70;99.90;;;;;;5051735;28;20550;-86
2023/07/13 06:59:48;;;;;;;0.00;0.00;;;;;;;;;;5044554;28;20021;-86
2023/07/13 07:02:14;;;;;;;0.00;0.00;;;17.90;99.90;;;;;;5045354;28;20025;-87
2023/07/13 07:04:39;;;;;;;0.00;0.00;;;;;;;;;;5044788;28;20037;-87
2023/07/13 07:07:05;;;;;;;0.00;0.00;;;17.80;99.90;;;;;;5047761;28;20029;-86
2023/07/13 07:09:31;;;;;;;0.00;0.00;;;17.80;99.90;;;;;;5046626;28;20379;-88
2023/07/13 07:11:57;;;;;;;0.00;0.00;;;;;;;;;;5045756;28;20532;-89
2023/07/13 07:14:23;;;;;;;0.00;0.00;;;18.00;99.90;;;;;;5040793;28;20108;-87
2023/07/13 07:16:49;;;;;;;0.00;0.00;;;18.00;99.90;;;;;;5051947;28;20162;-87
2023/07/13 07:19:15;;;;;;;0.00;0.00;;;18.00;99.90;;;;;;5056237;28;20078;-87
2023/07/13 07:21:41;;;;;;;0.00;0.00;;;18.00;99.90;;;;;;5052322;28;20020;-89
2023/07/13 07:24:07;;;;;;;0.00;0.00;;;18.20;99.90;;;;;;5053283;28;20032;-88
2023/07/13 07:26:33;;;;;;;0.00;0.00;;;18.30;99.90;;;;;;5051322;28;20104;-88
2023/07/13 07:28:58;;;;;;;0.00;0.00;;;18.20;99.90;;;;;;5052509;28;20097;-87
2023/07/13 07:31:24;;;;;;;0.00;0.00;;;18.20;99.90;;;;;;5052399;28;20389;-87
2023/07/13 07:33:49;;;;;;;0.00;0.00;;;18.50;99.90;;;;;;5052771;28;20631;-88
2023/07/13 07:36:16;;;;;;;0.00;0.00;;;18.60;99.90;;;;;;5051009;28;20509;-88
2023/07/13 07:38:41;;;;;;;0.00;0.00;;;18.70;99.90;;;;;;5043702;28;20035;-88
2023/07/13 07:41:07;;;;;;;0.00;0.00;;;;;;;;;;5067794;28;20401;-87
2023/07/13 07:43:33;;;;;;;0.00;0.00;;;18.90;99.90;;;;;;5044175;28;20025;-88
2023/07/13 07:45:58;;;;;;;0.00;0.00;;;19.00;99.90;;;;;;5047886;28;20032;-87
2023/07/13 07:48:24;;;;;;;0.00;0.00;;;19.00;99.90;;;;;;5052108;28;20023;-90
2023/07/13 07:50:49;;;;;;;0.00;0.00;;;18.90;99.90;;;;;;5049779;28;20397;-87
2023/07/13 07:53:15;;;;;;;0.00;0.00;;;18.90;99.90;;;;;;5050781;28;20040;-88
2023/07/13 07:55:41;;;;;;;0.00;0.00;;;;;;;;;;5047873;28;20041;-88
2023/07/13 07:58:07;;;;;;;0.00;0.00;;;;;;;;;;5044164;28;20032;-88
2023/07/13 08:00:33;;;;;;;0.00;0.00;;;19.10;99.90;;;;;;5050236;28;20055;-87
2023/07/13 08:02:59;;;;;;;0.00;0.00;;;19.10;99.90;;;;;;5051915;28;20032;-88
2023/07/13 08:05:25;;;;;;;0.00;0.00;;;19.20;99.90;;;;;;5045497;28;20021;-88
2023/07/13 08:07:51;;;;;;;0.00;0.00;;;19.40;99.90;;;;;;5046860;28;20025;-88
2023/07/13 08:10:17;;;;;;;0.00;0.00;;;;;;;;;;5050144;28;20028;-88
2023/07/13 08:12:43;;;;;;;0.00;0.00;;;19.30;99.90;;;;;;5050992;28;20029;-90
2023/07/13 08:15:14;;;;;;;0.00;0.00;;;19.40;99.90;;;;;;5051655;28;20079;-86
2023/07/13 08:17:40;;;;;;;0.00;0.00;;;19.60;99.90;;;;;;5048726;28;20052;-88
2023/07/13 08:20:06;;;;;;;0.00;0.00;;;19.40;99.90;;;;;;5047888;28;20486;-88
2023/07/13 08:22:32;;;;;;;0.00;0.00;;;19.40;99.90;;;;;;5052562;28;20031;-87
2023/07/13 08:24:59;;;;;;;0.00;0.00;;;19.50;99.90;;;;;;5050562;28;20104;-89
2023/07/13 08:27:26;;;;;;;0.00;0.00;;;19.70;99.90;;;;;;5049747;28;20025;-88
2023/07/13 08:29:52;;;;;;;0.00;0.00;;;20.60;99.90;;;;;;5046355;28;20113;-88
2023/07/13 08:32:18;;;;;;;0.00;0.00;;;19.80;99.90;;;;;;5049110;28;20032;-88
2023/07/13 08:34:44;;;;;;;0.00;0.00;;;19.80;99.90;;;;;;5047056;28;20052;-88
2023/07/13 08:37:10;;;;;;;0.00;0.00;;;20.00;99.90;;;;;;5055742;28;20041;-86
2023/07/13 08:39:36;;;;;;;0.00;0.00;;;;;;;;;;5060461;28;20525;-88
2023/07/13 08:42:13;;;;;;;0.00;0.00;;;19.90;99.90;;;;;;5052399;28;20029;-88
2023/07/13 08:44:52;;;;;;;0.00;0.00;;;19.80;99.90;;;;;;5047781;28;20028;-87
2023/07/13 08:47:20;;;;;;;0.00;0.00;;;19.80;99.90;;;;;;5065354;28;20025;-87
2023/07/13 08:49:46;;;;;;;0.00;0.00;;;20.00;99.90;;;;;;5056393;28;20030;-87
2023/07/13 08:52:27;;;;;;;0.00;0.00;;;20.10;99.90;;;;;;5045552;28;20028;-87
2023/07/13 08:54:56;;;;;;;0.00;0.00;;;20.20;99.90;;;;;;5048610;28;20025;-87
2023/07/13 08:57:29;;;;;;;0.00;0.00;;;20.30;99.90;;;;;;5053328;28;20078;-88
2023/07/13 08:59:55;;;;;;;0.00;0.00;;;20.50;99.90;;;;;;5052493;28;20488;-88
2023/07/13 09:02:40;;;;;;;0.00;0.00;;;20.50;99.90;;;;;;5051080;28;20035;-88
2023/07/13 09:05:16;;;;;;;0.00;0.00;;;20.40;99.90;;;;;;5046636;28;20590;-87
2023/07/13 09:07:57;;;;;;;0.00;0.00;;;20.70;99.90;;;;;;5048072;28;20588;-87
2023/07/13 09:10:49;;;;;;;0.00;0.00;;;20.70;99.90;;;;;;5045523;28;20123;-87
2023/07/13 09:13:35;;;;;;;0.00;0.00;;;20.80;99.90;;;;;;5057909;28;20046;-87
2023/07/13 09:16:01;;;;;;;0.00;0.00;;;20.80;99.90;;;;;;5048192;28;20025;-89
2023/07/13 09:18:37;;;;;;;0.00;0.00;;;21.20;99.90;;;;;;5050513;28;20044;-87
2023/07/13 09:21:07;;;;;;;0.00;0.00;;;21.10;99.90;;;;;;5063851;28;20025;-87
2023/07/13 09:23:35;;;;;;;0.00;0.00;;;21.40;99.90;;;;;;5053840;28;20067;-87
2023/07/13 09:26:10;;;;;;;0.00;0.00;;;21.40;99.90;;;;;;5050720;28;20029;-88
2023/07/13 09:28:43;;;;;;;0.00;0.00;;;21.20;99.90;;;;;;5050414;28;20045;-87
2023/07/13 09:31:24;;;;;;;0.00;0.00;;;21.00;99.90;;;;;;5046775;28;20013;-88
2023/07/13 09:33:50;;;;;;;0.00;0.00;;;21.10;99.90;;;;;;5047891;28;20123;-87
2023/07/13 09:36:25;;;;;;;0.00;0.00;;;21.50;99.90;;;;;;5045596;28;20506;-88
2023/07/13 09:39:10;;;;;;;0.00;0.00;;;21.50;99.90;;;;;;5049543;28;20040;-87
2023/07/13 09:41:47;;;;;;;0.00;0.00;;;21.60;99.90;;;;;;5049473;28;20017;-87
2023/07/13 09:44:15;;;;;;;0.00;0.00;;;21.80;99.90;;;;;;5065416;28;20120;-87
2023/07/13 09:46:53;;;;;;;0.00;0.00;;;22.20;99.90;;;;;;5049457;28;20021;-88
2023/07/13 09:49:26;;;;;;;0.00;0.00;;;21.70;99.90;;;;;;5051593;28;20045;-89
2023/07/13 09:52:03;;;;;;;0.00;0.00;;;21.70;99.90;;;;;;5052955;28;20486;-90
2023/07/13 09:54:33;;;;;;;0.00;0.00;;;21.60;99.90;;;;;;5049526;28;20471;-89
2023/07/13 09:57:00;;;;;;;0.00;0.00;;;21.40;99.80;;;;;;5051065;28;20024;-89
2023/07/13 09:59:45;;;;;;;0.00;0.00;;;21.50;99.70;;;;;;5048619;28;20018;-87
2023/07/13 10:02:46;;;;;;;0.00;0.00;;;21.40;99.10;;;;;;5051596;28;20021;-88
2023/07/13 10:05:14;;;;;;;0.00;0.00;;;21.60;99.90;;;;;;4990617;28;20034;-89
2023/07/13 10:07:44;;;;;;;0.00;0.00;;;21.70;99.90;;;;;;5034564;28;20040;-88
2023/07/13 10:10:19;;;;;;;0.00;0.00;;;22.90;99.90;;;;;;5048967;28;20036;-88
2023/07/13 10:12:46;;;;;;;0.00;0.00;;;22.40;99.10;;;;;;5051362;28;20039;-88
2023/07/13 10:15:22;;;;;;;0.00;0.00;;;22.10;98.60;;;;;;5052903;28;20031;-88
2023/07/13 10:17:50;;;;;;;0.00;0.00;;;21.90;98.10;;;;;;5050875;28;20025;-88
2023/07/13 10:20:15;;;;;;;0.00;0.00;;;21.80;98.30;;;;;;5051218;28;20111;-88
2023/07/13 10:22:47;;;;;;;0.00;0.00;;;21.80;99.90;;;;;;5046817;28;20317;-89
2023/07/13 10:25:20;;;;;;;0.00;0.00;;;21.80;99.50;;;;;;5048225;28;20588;-88
2023/07/13 10:27:47;;;;;;;0.00;0.00;;;22.20;99.00;;;;;;5057295;28;20028;-88
2023/07/13 10:30:22;;;;;;;0.00;0.00;;;22.20;99.20;;;;;;5049313;28;20017;-88
2023/07/13 10:32:50;;;;;;;0.00;0.00;;;22.40;99.30;;;;;;5043787;28;20017;-87
2023/07/13 10:35:20;;;;;;;0.00;0.00;;;23.10;99.00;;;;;;5052521;28;20021;-89
2023/07/13 10:38:10;;;;;;;0.00;0.00;;;23.40;97.80;;;;;;5052320;28;20021;-88
2023/07/13 10:40:48;;;;;;;0.00;0.00;;;23.60;97.00;;;;;;5065146;28;20060;-87
2023/07/13 10:43:38;;;;;;;0.00;0.00;;;23.60;96.80;;;;;;5050754;28;20467;-87
2023/07/13 10:46:06;;;;;;;0.00;0.00;;;23.50;96.30;;;;;;5049811;28;20044;-89
2023/07/13 10:48:34;;;;;;;0.00;0.00;;;23.30;95.00;;;;;;5049115;28;20025;-87
2023/07/13 10:51:01;;;;;;;0.00;0.00;;;23.20;95.20;;;;;;5049729;28;20017;-88
2023/07/13 10:53:32;;;;;;;0.00;0.00;;;22.80;94.90;;;;;;5050369;28;20029;-88
2023/07/13 10:56:02;;;;;;;0.00;0.00;;;22.50;95.50;;;;;;5047342;28;20026;-87
2023/07/13 10:58:39;;;;;;;0.00;0.00;;;22.50;95.80;;;;;;5048133;28;20051;-87
2023/07/13 11:01:10;;;;;;;0.00;0.00;;;23.10;97.10;;;;;;5047068;28;20076;-87
2023/07/13 11:03:59;;;;;;;0.00;0.00;;;23.30;96.80;;;;;;5050297;28;20043;-88
2023/07/13 11:06:31;;;;;;;0.00;0.00;;;23.50;95.20;;;;;;5051615;28;20029;-86
2023/07/13 11:09:00;;;;;;;0.00;0.00;;;23.60;96.60;;;;;;5048497;28;20025;-89
2023/07/13 11:11:26;;;;;;;0.00;0.00;;;23.60;96.20;;;;;;5047277;28;20021;-89
2023/07/13 11:13:51;;;;;;;0.00;0.00;;;23.70;96.90;;;;;;5049383;28;20029;-88
2023/07/13 11:16:20;;;;;;;0.00;0.00;;;23.60;95.50;;;;;;5050250;28;20474;-87
2023/07/13 11:18:48;;;;;;;0.00;0.00;;;23.40;95.30;;;;;;5048487;28;20103;-89
2023/07/13 11:21:15;;;;;;;0.00;0.00;;;23.70;97.10;;;;;;5050952;28;20341;-89
2023/07/13 11:23:52;;;;;;;0.00;0.00;;;24.00;96.40;;;;;;5051989;28;20037;-87
2023/07/13 11:26:45;;;;;;;0.00;0.00;;;24.80;95.70;;;;;;5050506;28;20021;-88
2023/07/13 11:29:36;;;;;;;0.00;0.00;;;23.90;96.60;;;;;;5047366;28;20405;-88
2023/07/13 11:32:26;;;;;;;0.00;0.00;;;24.00;95.60;;;;;;5049538;28;20021;-88
2023/07/13 11:34:53;;;;;;;0.00;0.00;;;24.10;95.90;;;;;;5052321;28;20493;-89
2023/07/13 11:37:20;;;;;;;0.00;0.00;;;24.30;95.90;;;;;;5050481;28;20025;-87
2023/07/13 11:39:47;;;;;;;0.00;0.00;;;25.80;95.90;;;;;;5049522;28;20024;-87
2023/07/13 11:42:16;;;;;;;0.00;0.00;;;26.90;95.40;;;;;;5047697;28;20048;-88
2023/07/13 11:44:45;;;;;;;0.00;0.00;;;26.20;95.80;;;;;;5041884;28;20025;-87
2023/07/13 11:47:17;;;;;;;0.00;0.00;;;24.30;95.30;;;;;;5040993;28;20298;-88
2023/07/13 11:49:56;;;;;;;0.00;0.00;;;23.80;95.20;;;;;;5047838;28;20139;-89
2023/07/13 11:52:33;;;;;;;0.00;0.00;;;23.40;95.20;;;;;;5046516;28;20029;-88
2023/07/13 11:55:01;;;;;;;0.00;0.00;;;23.40;95.40;;;;;;5043167;28;20390;-89
2023/07/13 11:57:35;;;;;;;0.00;0.00;;;22.70;95.40;;;;;;5019906;28;20065;-87
2023/07/13 12:00:06;;;;;;;0.00;0.00;;;22.60;95.50;;;;;;5039435;28;20037;-88
2023/07/13 12:02:43;;;;;;;0.00;0.00;;;22.50;95.70;;;;;;5048409;28;20028;-86
2023/07/13 12:05:15;;;;;;;0.00;0.00;;;22.90;96.40;;;;;;5046393;28;20033;-89
2023/07/13 12:07:40;;;;;;;0.00;0.00;;;23.10;95.70;;;;;;5041433;28;20028;-88
2023/07/13 12:10:09;;;;;;;0.00;0.00;;;23.50;96.10;;;;;;5043490;28;20120;-87
2023/07/13 12:12:36;;;;;;;0.00;0.00;;;23.50;94.30;;;;;;5045100;28;20068;-87
2023/07/13 12:15:06;;;;;;;0.00;0.00;;;24.20;93.50;;;;;;5048573;28;20470;-89
2023/07/13 12:17:34;;;;;;;0.00;0.00;;;23.40;93.60;;;;;;5044988;28;20537;-88
2023/07/13 12:20:06;;;;;;;0.00;0.00;;;23.40;94.80;;;;;;5046870;28;20096;-89
2023/07/13 12:22:34;;;;;;;0.00;0.00;;;23.60;93.90;;;;;;5045693;28;20441;-88
2023/07/13 12:24:59;;;;;;;0.00;0.00;;;23.60;94.80;;;;;;5046902;28;20021;-88
2023/07/13 12:27:28;;;;;;;0.00;0.00;;;23.30;98.20;;;;;;5046230;28;20375;-89
2023/07/13 12:30:00;;;;;;;0.00;0.00;;;23.70;96.80;;;;;;5043829;28;20029;-88
2023/07/13 12:32:26;;;;;;;0.00;0.00;;;25.80;97.50;;;;;;5044791;28;20055;-88
2023/07/13 12:35:16;;;;;;;0.00;0.00;;;24.40;96.20;;;;;;5047933;28;20029;-88
2023/07/13 12:37:43;;;;;;;0.00;0.00;;;24.60;95.10;;;;;;5043823;28;20051;-88
2023/07/13 12:40:19;;;;;;;0.00;0.00;;;24.50;95.20;;;;;;5040333;28;20036;-86
2023/07/13 12:42:50;;;;;;;0.00;0.00;;;24.10;91.70;;;;;;5048503;28;20033;-87
2023/07/13 12:45:24;;;;;;;0.00;0.00;;;24.10;91.90;;;;;;5047239;28;20056;-87
2023/07/13 12:47:58;;;;;;;0.00;0.00;;;24.20;92.80;;;;;;5046005;28;20084;-89
2023/07/13 12:50:31;;;;;;;0.00;0.00;;;24.50;94.00;;;;;;5043751;28;20021;-89
2023/07/13 12:53:03;;;;;;;0.00;0.00;;;25.60;94.40;;;;;;5044789;28;20028;-89
2023/07/13 12:55:32;;;;;;;0.00;0.00;;;24.30;92.70;;;;;;5050468;28;20055;-89
2023/07/13 12:57:59;;;;;;;0.00;0.00;;;24.20;92.80;;;;;;5050998;28;20033;-88
2023/07/13 13:00:25;;;;;;;0.00;0.00;;;24.10;93.00;;;;;;5047604;28;20028;-88
2023/07/13 13:02:56;;;;;;;0.00;0.00;;;24.10;93.60;;;;;;5049482;28;20119;-87
2023/07/13 13:05:25;;;;;;;0.00;0.00;;;24.30;94.30;;;;;;5049740;28;20025;-86
2023/07/13 13:07:51;;;;;;;0.00;0.00;;;;;;;;;;5047394;28;20150;-88
2023/07/13 13:10:17;;;;;;;0.00;0.00;;;;;;;;;;5048599;28;20111;-88
2023/07/13 13:12:42;;;;;;;0.00;0.00;;;23.70;95.10;;;;;;5040586;28;20099;-87
2023/07/13 13:15:11;;;;;;;0.00;0.00;;;23.70;94.90;;;;;;5052824;28;20029;-88
2023/07/13 13:17:37;;;;;;;0.00;0.00;;;23.70;93.40;;;;;;5045762;28;20025;-87
2023/07/13 13:20:15;;;;;;;0.00;0.00;;;24.30;95.30;;;;;;5047541;28;20402;-88
2023/07/13 13:22:41;;;;;;;0.00;0.00;;;24.00;96.30;;;;;;5048061;28;20032;-87
2023/07/13 13:25:10;;;;;;;0.00;0.00;;;24.30;95.80;;;;;;5044077;28;20284;-89
2023/07/13 13:27:36;;;;;;;0.00;0.00;;;24.60;91.30;;;;;;5049315;28;20048;-88
2023/07/13 13:30:02;;;;;;;0.00;0.00;;;26.20;92.10;;;;;;5051114;28;20112;-89
2023/07/13 13:32:28;;;;;;;0.00;0.00;;;24.80;88.60;;;;;;5051642;28;20605;-89
2023/07/13 13:34:53;;;;;;;0.00;0.00;;;24.60;90.10;;;;;;5047333;28;20045;-88
2023/07/13 13:37:21;;;;;;;0.00;0.00;;;24.20;90.20;;;;;;5045308;28;20025;-88
2023/07/13 13:39:48;;;;;;;0.00;0.00;;;24.50;90.60;;;;;;5044307;28;20036;-88
2023/07/13 13:42:14;;;;;;;0.00;0.00;;;23.90;92.60;;;;;;5044958;28;20090;-86
2023/07/13 13:44:42;;;;;;;0.00;0.00;;;23.40;93.90;;;;;;5051444;28;20488;-88
2023/07/13 13:47:29;;;;;;;0.00;0.00;;;23.00;94.90;;;;;;5052368;28;20030;-86
2023/07/13 13:49:55;;;;;;;0.00;0.00;;;22.00;94.70;;;;;;5048990;28;20017;-84
2023/07/13 13:52:20;;;;;;;0.00;0.00;;;;;;;;;;5044696;28;20052;-89
2023/07/13 13:54:46;;;;;;;0.00;0.00;;;;;;;;;;5048037;28;20025;-86
2023/07/13 13:57:12;;;;;;;0.00;0.00;;;;;;;;;;5041729;28;20029;-87
2023/07/13 13:59:42;;;;;;;0.00;0.00;;;;;;;;;;5051031;28;20039;-91
2023/07/13 14:02:22;;;;;;;0.00;0.00;;;18.90;99.30;;;;;;5051283;28;20024;-87
2023/07/13 14:04:53;;;;;;;0.00;0.00;;;18.20;99.90;;;;;;5049226;28;20037;-86
2023/07/13 14:07:19;;;;;;;0.00;0.00;;;;;;;;;;5048095;28;20222;-87
2023/07/13 14:09:45;;;;;;;0.00;0.00;;;;;;;;;;5047034;28;20032;-86
2023/07/13 14:12:14;;;;;;;0.00;0.00;;;;;;;;;;5056021;28;20035;-87
2023/07/13 14:14:40;;;;;;;0.00;0.00;;;;;;;;;;5047443;28;20104;-85
2023/07/13 14:17:23;;;;;;;0.00;0.00;;;17.30;99.90;;;;;;5046798;28;20051;-86
2023/07/13 14:19:51;;;;;;;0.00;0.00;;;17.30;99.90;;;;;;5046485;28;20024;-88
2023/07/13 14:22:18;;;;;;;0.00;0.00;;;16.70;99.90;;;;;;5048505;28;20029;-86
2023/07/13 14:24:43;;;;;;;0.00;0.00;;;16.50;99.90;;;;;;5046512;28;20029;-88
2023/07/13 14:27:10;;;;;;;0.00;0.00;;;17.00;99.90;;;;;;5051749;28;20024;-87
2023/07/13 14:29:36;;;;;;;0.00;0.00;;;16.90;99.90;;;;;;5052275;28;20053;-87
2023/07/13 14:32:02;;;;;;;0.00;0.00;;;17.40;99.90;;;;;;5048218;28;20446;-89
2023/07/13 14:34:28;;;;;;;0.00;0.00;;;17.80;99.90;;;;;;5036878;28;20068;-87
2023/07/13 14:36:53;;;;;;;0.00;0.00;;;18.30;99.90;;;;;;5049909;28;20176;-89
2023/07/13 14:39:22;;;;;;;0.00;0.00;;;18.80;99.90;;;;;;5041903;28;20533;-87
2023/07/13 14:41:56;;;;;;;0.00;0.00;;;18.80;99.90;;;;;;5049730;28;20029;-87
2023/07/13 14:44:28;;;;;;;0.00;0.00;;;18.80;99.90;;;;;;5045800;28;20029;-87
2023/07/13 14:46:54;;;;;;;0.00;0.00;;;19.10;99.90;;;;;;5052380;28;20041;-87
2023/07/13 14:49:34;;;;;;;0.00;0.00;;;19.20;99.90;;;;;;5069030;28;20056;-88
2023/07/13 14:52:02;;;;;;;0.00;0.00;;;18.90;99.90;;;;;;5063282;28;20021;-88
2023/07/13 14:54:28;;;;;;;0.00;0.00;;;19.20;99.90;;;;;;5050748;28;20119;-88